Time;durP1;ratioP1;P1;durP2;ratioP2;P2;SDS_P1;SDS_P2;PMS_P1;PMS_P2;Temp;Humidity;BMP_temperature;BMP_pressure;BME280_temperature;BME280_humidity;BME280_pressure;Samples;Min_cycle;Max_cycle;Signal;HPM_P1;HPM_P2
2022/12/30 00:00:55;;;;;;;8.33;2.40;;;5.40;99.90;;;6.18;100.00;97865.47;5044561;28;20465;-77
2022/12/30 00:03:26;;;;;;;10.00;2.20;;;5.40;99.90;;;6.17;100.00;97871.63;5037347;28;20472;-78
2022/12/30 00:05:56;;;;;;;16.13;2.33;;;5.40;99.90;;;6.14;100.00;97877.16;5037770;28;20466;-78
2022/12/30 00:11:13;;;;;;;4.90;1.70;;;5.30;99.90;;;6.04;100.00;97908.44;5052659;28;21328;-78
2022/12/30 00:33:49;;;;;;;8.70;1.87;;;5.00;99.90;;;5.70;100.00;97916.31;5047982;28;20536;-78
2022/12/30 00:36:24;;;;;;;8.23;1.87;;;5.00;99.90;;;5.69;100.00;97913.91;5043959;28;20475;-79
2022/12/30 00:38:53;;;;;;;14.80;2.40;;;4.90;99.90;;;5.69;100.00;97908.72;5048770;28;20494;-78
2022/12/30 00:44:09;;;;;;;7.50;2.20;;;5.00;99.90;;;5.61;100.00;97911.28;5045813;28;21317;-78
2022/12/30 00:46:42;;;;;;;5.03;1.77;;;4.90;99.90;;;5.58;100.00;97902.88;5045840;28;20544;-78
2022/12/30 00:57:31;;;;;;;16.77;2.70;;;4.60;99.90;;;5.42;100.00;97909.75;5049476;28;20538;-78
2022/12/30 01:00:01;;;;;;;17.80;2.40;;;4.70;99.90;;;5.37;100.00;97909.44;5048643;28;20469;-78
2022/12/30 01:02:32;;;;;;;9.67;2.00;;;4.50;99.90;;;5.40;100.00;97904.75;5041516;28;20561;-78
2022/12/30 01:05:01;;;;;;;8.90;1.77;;;4.70;99.90;;;5.41;100.00;97916.75;5045194;28;20462;-78
2022/12/30 01:07:32;;;;;;;4.60;1.97;;;4.70;99.90;;;5.43;100.00;97917.41;5045517;28;20461;-78
2022/12/30 01:10:02;;;;;;;3.63;1.80;;;4.70;99.90;;;5.42;100.00;97927.91;5042926;28;20955;-78
2022/12/30 01:12:32;;;;;;;15.20;1.90;;;4.70;99.90;;;5.37;100.00;97931.00;5052556;28;20460;-78
2022/12/30 01:15:01;;;;;;;11.50;2.70;;;4.60;99.90;;;5.37;100.00;97931.00;5050754;28;20477;-78
2022/12/30 01:17:34;;;;;;;5.30;1.73;;;4.60;99.90;;;5.31;100.00;97931.59;5046574;28;20488;-78
2022/12/30 01:20:05;;;;;;;5.40;1.73;;;4.50;99.90;;;5.28;100.00;97936.28;5046177;28;20529;-78
2022/12/30 01:22:36;;;;;;;7.00;2.07;;;4.40;99.90;;;5.26;100.00;97928.69;5048500;28;20535;-79
2022/12/30 01:25:08;;;;;;;5.33;1.90;;;4.50;99.90;;;5.24;100.00;97924.63;5047647;28;20498;-78
2022/12/30 01:27:37;;;;;;;6.53;2.13;;;4.40;99.90;;;5.19;100.00;97930.28;5046103;28;20522;-78
2022/12/30 01:30:09;;;;;;;6.57;2.40;;;4.30;99.90;;;5.11;100.00;97935.41;5048951;28;20597;-78
2022/12/30 01:32:37;;;;;;;14.30;3.13;;;4.20;99.90;;;5.13;100.00;97941.28;5050163;28;20499;-79
2022/12/30 01:35:08;;;;;;;19.13;2.30;;;4.30;99.90;;;5.06;100.00;97942.88;5046343;28;20495;-78
2022/12/30 01:37:39;;;;;;;5.97;1.80;;;4.20;99.90;;;5.06;100.00;97948.03;5048734;28;20534;-79
2022/12/30 01:40:10;;;;;;;15.73;2.57;;;4.20;99.90;;;5.06;100.00;97954.03;5048163;28;21167;-78
2022/12/30 01:42:42;;;;;;;9.20;2.43;;;4.20;99.90;;;5.07;100.00;97954.81;5051222;28;20473;-78
2022/12/30 01:45:34;;;;;;;5.20;1.63;;;4.20;99.90;;;5.14;100.00;97963.63;5049435;28;21621;-78
2022/12/30 01:48:13;;;;;;;9.03;1.97;;;4.40;99.90;;;5.12;100.00;97960.38;5053989;28;20873;-78
2022/12/30 01:50:49;;;;;;;4.80;2.00;;;4.40;99.90;;;5.20;100.00;97970.78;5052716;28;20501;-78
2022/12/30 01:53:29;;;;;;;11.90;1.87;;;4.50;99.90;;;5.24;100.00;97966.91;5049378;28;20564;-78
2022/12/30 01:56:06;;;;;;;5.13;2.80;;;4.50;99.90;;;5.29;100.00;97969.03;5052792;28;20455;-78
2022/12/30 01:58:43;;;;;;;4.30;1.47;;;4.60;99.90;;;5.33;100.00;97970.34;5052110;28;20467;-78
2022/12/30 02:01:13;;;;;;;5.60;1.80;;;4.60;99.90;;;5.33;100.00;97981.53;5050404;28;21014;-78
2022/12/30 02:03:47;;;;;;;3.63;1.70;;;4.60;99.90;;;5.36;100.00;97981.22;5049755;28;20465;-78
2022/12/30 02:06:25;;;;;;;4.00;2.37;;;4.60;99.90;;;5.32;100.00;97984.28;5052955;28;20979;-78
2022/12/30 02:08:56;;;;;;;8.77;1.73;;;4.60;99.90;;;5.38;100.00;97984.47;5048966;28;21011;-78
2022/12/30 02:11:28;;;;;;;6.53;1.90;;;4.60;99.90;;;5.42;100.00;97988.38;5052566;28;20507;-78
2022/12/30 02:13:58;;;;;;;3.87;1.50;;;4.70;99.90;;;5.43;100.00;97989.19;5053887;28;20863;-78
2022/12/30 02:16:56;;;;;;;11.83;1.90;;;4.70;99.90;;;5.48;100.00;97992.91;5053715;28;20529;-78
2022/12/30 02:20:22;;;;;;;22.20;2.10;;;4.80;99.90;;;5.50;100.00;97993.59;5051050;28;20949;-78
2022/12/30 02:23:40;;;;;;;7.83;2.10;;;4.80;99.90;;;5.56;100.00;97976.59;5053254;28;20525;-78
2022/12/30 02:27:26;;;;;;;8.57;2.20;;;4.90;99.90;;;5.58;100.00;97967.69;5049495;28;20490;-78
2022/12/30 02:30:13;;;;;;;5.73;2.00;;;5.00;99.90;;;5.65;100.00;97969.66;5047070;28;20519;-78
2022/12/30 02:33:06;;;;;;;9.77;2.53;;;5.00;99.90;;;5.69;100.00;97965.78;5049013;28;20468;-78
2022/12/30 02:35:51;;;;;;;15.73;2.50;;;5.10;99.90;;;5.73;100.00;97967.06;5051526;28;20468;-78
2022/12/30 02:38:37;;;;;;;8.87;2.50;;;5.10;99.90;;;5.76;100.00;97966.78;5047556;28;20500;-78
2022/12/30 02:47:05;;;;;;;7.87;1.90;;;5.30;99.90;;;5.88;100.00;97963.75;5053522;28;20461;-78
2022/12/30 02:49:38;;;;;;;12.00;2.37;;;5.30;99.90;;;5.93;100.00;97968.47;5050890;28;20457;-78
2022/12/30 02:52:15;;;;;;;6.53;2.13;;;5.30;99.90;;;5.96;100.00;97962.94;5051630;28;20551;-78
2022/12/30 02:54:47;;;;;;;8.93;2.23;;;5.40;99.90;;;6.00;100.00;97964.25;5052305;28;20492;-78
2022/12/30 02:57:30;;;;;;;14.17;5.50;;;5.40;99.90;;;6.05;100.00;97969.75;5048637;28;20932;-78
2022/12/30 03:06:28;;;;;;;19.17;2.83;;;5.50;99.90;;;6.15;100.00;97967.81;5051270;28;20475;-80
2022/12/30 03:09:11;;;;;;;14.53;4.17;;;5.50;99.90;;;6.18;100.00;97975.28;5051709;28;20456;-78
2022/12/30 03:11:57;;;;;;;10.03;1.80;;;5.60;99.90;;;6.22;100.00;97963.59;5052344;28;21942;-78
2022/12/30 03:14:37;;;;;;;13.23;2.30;;;5.60;99.90;;;6.25;100.00;97967.69;5050789;28;20603;-78
2022/12/30 03:17:15;;;;;;;13.53;2.33;;;5.70;99.90;;;6.30;100.00;97961.03;5046487;28;20894;-78
2022/12/30 03:19:52;;;;;;;9.10;2.00;;;5.80;99.90;;;6.35;100.00;97944.97;5050956;28;20519;-78
2022/12/30 03:28:06;;;;;;;16.27;3.20;;;5.90;99.90;;;6.50;100.00;97944.13;5049848;28;20524;-78
2022/12/30 03:30:46;;;;;;;9.00;2.50;;;6.00;99.90;;;6.54;100.00;97947.22;5048969;28;20519;-78
2022/12/30 03:33:16;;;;;;;8.43;2.27;;;6.00;99.90;;;6.58;100.00;97943.31;5049174;28;20462;-78
2022/12/30 03:35:53;;;;;;;13.57;2.37;;;6.10;99.90;;;6.60;100.00;97946.56;5051264;28;20490;-78
2022/12/30 03:38:32;;;;;;;10.57;3.13;;;6.10;99.90;;;6.65;100.00;97948.66;5047908;28;20462;-78
2022/12/30 03:41:06;;;;;;;10.23;2.73;;;6.10;99.90;;;6.68;100.00;97943.94;5050486;28;20564;-78
2022/12/30 03:43:36;;;;;;;6.23;2.90;;;6.20;99.90;;;6.71;100.00;97943.63;5049212;28;20456;-78
2022/12/30 03:46:06;;;;;;;9.33;2.57;;;6.20;99.90;;;6.74;100.00;97948.47;5052579;28;20504;-79
2022/12/30 03:48:36;;;;;;;13.37;2.53;;;6.30;99.90;;;6.76;100.00;97950.94;5046359;28;21029;-78
2022/12/30 03:51:07;;;;;;;11.83;2.47;;;6.30;99.90;;;6.79;100.00;97955.78;5049151;28;20500;-78
2022/12/30 03:53:39;;;;;;;9.80;3.73;;;6.30;99.90;;;6.82;100.00;97950.25;5052792;28;20960;-78
2022/12/30 03:56:10;;;;;;;12.40;2.93;;;6.30;99.90;;;6.87;100.00;97948.00;5053078;28;21189;-78
2022/12/30 03:58:39;;;;;;;18.33;2.93;;;6.40;99.90;;;6.89;100.00;97946.03;5049587;28;20471;-78
2022/12/30 04:01:10;;;;;;;15.13;2.77;;;6.40;99.90;;;6.91;100.00;97949.25;5051363;28;20465;-78
2022/12/30 04:03:40;;;;;;;17.33;3.17;;;6.50;99.90;;;6.93;100.00;97945.53;5051043;28;20467;-78
2022/12/30 04:06:09;;;;;;;8.47;2.57;;;6.50;99.90;;;6.95;100.00;97935.75;5050798;28;20473;-79
2022/12/30 04:08:40;;;;;;;25.10;3.37;;;6.50;99.90;;;6.97;100.00;97939.03;5051024;28;20461;-79
2022/12/30 04:11:10;;;;;;;8.00;3.40;;;6.50;99.90;;;6.98;100.00;97940.63;5040745;28;20858;-74
2022/12/30 04:13:39;;;;;;;19.30;3.47;;;6.50;99.90;;;6.99;100.00;97946.66;5044435;28;20466;-78
2022/12/30 04:16:10;;;;;;;9.10;3.00;;;6.50;99.90;;;7.01;100.00;97953.28;5045687;28;20467;-79
2022/12/30 04:18:40;;;;;;;8.00;2.90;;;6.50;99.90;;;7.02;100.00;97959.31;5045579;28;20904;-78
2022/12/30 04:21:11;;;;;;;27.67;5.00;;;6.50;99.90;;;7.05;100.00;97958.97;5044945;28;20535;-79
2022/12/30 04:23:43;;;;;;;20.07;4.00;;;6.60;99.90;;;7.05;100.00;97956.38;5046011;28;20787;-78
2022/12/30 04:26:13;;;;;;;9.40;3.27;;;6.60;99.90;;;7.06;100.00;97958.81;5044244;28;20470;-78
2022/12/30 04:28:42;;;;;;;7.93;2.70;;;6.50;99.90;;;7.07;100.00;97954.44;5045151;28;20522;-75
2022/12/30 04:31:13;;;;;;;15.73;3.73;;;6.50;99.90;;;7.10;100.00;97959.28;5044843;28;20572;-78
2022/12/30 04:33:42;;;;;;;13.20;3.60;;;6.60;99.90;;;7.12;100.00;97956.50;5048453;28;20469;-78
2022/12/30 04:36:11;;;;;;;17.80;3.10;;;6.60;99.90;;;7.12;100.00;97957.31;5049209;28;20460;-78
2022/12/30 04:38:41;;;;;;;17.70;3.60;;;6.70;99.90;;;7.12;100.00;97954.72;5047828;28;20981;-78
2022/12/30 04:41:11;;;;;;;10.80;3.00;;;6.70;99.90;;;7.14;100.00;97960.59;5044495;28;20464;-78
2022/12/30 04:43:40;;;;;;;10.40;4.27;;;6.60;99.90;;;7.14;100.00;97950.19;5042537;28;20488;-74
2022/12/30 04:46:10;;;;;;;30.50;12.63;;;6.60;99.90;;;7.15;100.00;97946.59;5050579;28;20464;-78
2022/12/30 04:48:41;;;;;;;11.53;3.63;;;6.60;99.90;;;7.15;100.00;97954.38;5055284;28;20465;-78
2022/12/30 04:51:11;;;;;;;12.53;3.40;;;6.60;99.90;;;7.15;100.00;97954.38;5051914;28;20500;-78
2022/12/30 04:53:42;;;;;;;8.43;3.40;;;6.60;99.90;;;7.15;100.00;97954.38;5054772;28;20485;-79
2022/12/30 04:56:13;;;;;;;10.17;3.80;;;6.60;99.90;;;7.16;100.00;97948.22;5053813;28;20590;-78
2022/12/30 04:58:48;;;;;;;16.63;3.60;;;6.60;99.90;;;7.18;100.00;97951.47;5054002;28;20485;-78
2022/12/30 05:01:17;;;;;;;16.00;3.10;;;6.60;99.90;;;7.20;100.00;97952.09;5053860;28;20211;-74
2022/12/30 05:03:47;;;;;;;8.50;3.53;;;6.60;99.90;;;7.21;100.00;97953.72;5044884;28;20488;-78
2022/12/30 05:06:18;;;;;;;6.23;2.90;;;6.60;99.90;;;7.21;100.00;97951.13;5045436;28;20462;-78
2022/12/30 05:08:50;;;;;;;10.43;3.00;;;6.50;99.90;;;7.22;100.00;97955.34;5053852;28;20456;-79
2022/12/30 05:11:19;;;;;;;15.23;3.13;;;6.50;99.90;;;7.23;100.00;97954.38;5055275;28;21056;-78
2022/12/30 05:13:49;;;;;;;7.77;2.43;;;6.60;99.90;;;7.24;100.00;97956.00;5049368;28;20955;-78
2022/12/30 05:16:19;;;;;;;12.17;2.10;;;6.70;99.90;;;7.24;100.00;97956.00;5052750;28;20468;-78
2022/12/30 05:18:48;;;;;;;8.63;2.37;;;6.80;99.90;;;7.25;100.00;97960.22;5054236;28;20519;-78
2022/12/30 05:21:17;;;;;;;5.90;2.60;;;6.70;99.90;;;7.25;100.00;97960.22;5049459;28;21288;-78
2022/12/30 05:26:35;;;;;;;5.90;2.30;;;6.70;99.90;;;7.27;100.00;97958.25;5057402;28;20560;-78
2022/12/30 05:29:05;;;;;;;8.67;2.70;;;6.70;99.90;;;7.29;100.00;97973.72;5051765;28;20534;-79
2022/12/30 05:31:35;;;;;;;13.83;2.47;;;6.80;99.90;;;7.30;100.00;97978.72;5052547;28;20611;-78
2022/12/30 05:34:04;;;;;;;79.73;28.63;;;6.80;99.90;;;7.31;100.00;97982.94;5058047;28;20530;-78
2022/12/30 05:36:37;;;;;;;15.07;3.40;;;6.80;99.90;;;7.30;100.00;97976.13;5054724;28;20466;-79
2022/12/30 05:39:11;;;;;;;15.20;2.40;;;6.80;99.90;;;7.31;100.00;97971.75;5057146;28;20460;-79
2022/12/30 05:41:41;;;;;;;8.10;1.80;;;6.80;99.90;;;7.34;100.00;97974.00;5051613;28;20827;-78
2022/12/30 05:44:11;;;;;;;15.10;2.17;;;6.80;99.90;;;7.33;100.00;97986.19;5054520;28;20483;-78
2022/12/30 05:46:40;;;;;;;9.50;2.50;;;6.80;99.90;;;7.35;100.00;97979.03;5056113;28;20461;-78
2022/12/30 05:49:10;;;;;;;8.80;2.17;;;6.90;99.90;;;7.33;100.00;97973.19;5053459;28;20576;-79
2022/12/30 05:51:39;;;;;;;13.57;2.60;;;6.80;99.90;;;7.34;100.00;97974.81;5051410;28;20530;-78
2022/12/30 05:54:11;;;;;;;14.10;2.40;;;6.90;99.90;;;7.34;100.00;97969.59;5051143;28;20492;-79
2022/12/30 05:56:41;;;;;;;21.07;2.67;;;6.90;99.90;;;7.34;100.00;97968.78;5052988;28;20507;-79
2022/12/30 05:59:10;;;;;;;9.07;2.00;;;6.80;99.90;;;7.33;100.00;97965.38;5052440;28;20456;-79
2022/12/30 06:01:40;;;;;;;5.90;2.43;;;6.80;99.90;;;7.35;100.00;97973.84;5052033;28;20549;-78
2022/12/30 06:04:10;;;;;;;5.03;2.00;;;6.80;99.90;;;7.34;100.00;97977.41;5052341;28;20476;-79
2022/12/30 06:06:40;;;;;;;7.40;1.90;;;6.80;99.90;;;7.35;100.00;97973.03;5051645;28;20457;-78
2022/12/30 06:09:11;;;;;;;5.83;2.60;;;6.80;99.90;;;7.34;100.00;97972.22;5052652;28;20461;-79
2022/12/30 06:11:41;;;;;;;6.10;2.03;;;6.80;99.90;;;7.36;100.00;97972.84;5053472;28;20509;-78
2022/12/30 06:14:12;;;;;;;18.13;2.80;;;6.80;99.90;;;7.36;100.00;97970.25;5049990;28;20469;-79
2022/12/30 06:16:42;;;;;;;4.73;2.00;;;6.90;99.90;;;7.36;100.00;97965.03;5047660;28;20512;-78
2022/12/30 06:19:11;;;;;;;6.43;2.03;;;6.80;99.90;;;7.36;100.00;97972.84;5052414;28;20466;-79
2022/12/30 06:21:42;;;;;;;10.00;2.40;;;6.80;99.90;;;7.37;100.00;97966.66;5054099;28;20489;-78
2022/12/30 06:24:13;;;;;;;8.33;2.30;;;6.80;99.90;;;7.40;100.00;97971.53;5052486;28;20539;-78
2022/12/30 06:26:43;;;;;;;12.47;2.43;;;6.90;99.90;;;7.40;100.00;97979.34;5051681;28;20526;-78
2022/12/30 06:29:13;;;;;;;7.37;2.80;;;6.80;99.90;;;7.40;100.00;97968.94;5052232;28;20980;-79
2022/12/30 06:31:42;;;;;;;5.90;3.00;;;6.90;99.90;;;7.40;100.00;97961.13;5054955;28;20499;-79
2022/12/30 06:34:12;;;;;;;12.27;2.47;;;6.90;99.90;;;7.39;100.00;97961.31;5052231;28;20548;-79
2022/12/30 06:36:43;;;;;;;4.77;2.20;;;6.90;99.90;;;7.38;100.00;97957.91;5051484;28;20500;-79
2022/12/30 06:39:14;;;;;;;10.53;2.83;;;6.80;99.90;;;7.40;100.00;97958.53;5049600;28;20473;-78
2022/12/30 06:41:44;;;;;;;15.50;2.30;;;6.90;99.90;;;7.41;100.00;97952.34;5052610;28;20465;-78
2022/12/30 06:44:14;;;;;;;8.20;2.10;;;6.90;99.90;;;7.42;100.00;97948.78;5051555;28;21322;-79
2022/12/30 06:46:44;;;;;;;11.70;2.13;;;6.90;99.90;;;7.41;100.00;97954.13;5053404;28;20483;-79
2022/12/30 06:49:13;;;;;;;6.63;2.70;;;6.80;99.90;;;7.39;100.00;97956.91;5050466;28;20476;-78
2022/12/30 06:51:42;;;;;;;9.07;2.23;;;6.80;99.90;;;7.40;100.00;97953.31;5051156;28;20469;-78
2022/12/30 06:54:11;;;;;;;4.47;1.97;;;6.80;99.90;;;7.40;100.00;97958.53;5048088;28;20497;-79
2022/12/30 06:56:42;;;;;;;8.10;2.50;;;6.80;99.90;;;7.40;100.00;97955.91;5050196;28;20473;-78
2022/12/30 06:59:12;;;;;;;11.20;2.37;;;6.80;99.90;;;7.40;100.00;97965.50;5049972;28;20549;-79
2022/12/30 07:01:42;;;;;;;5.23;2.17;;;6.70;99.90;;;7.42;100.00;97951.38;5052246;28;20497;-78
2022/12/30 07:04:12;;;;;;;9.27;2.40;;;6.90;99.90;;;7.42;100.00;97953.16;5053908;28;20465;-79
2022/12/30 07:06:43;;;;;;;18.63;7.50;;;6.90;99.90;;;7.42;100.00;97943.56;5050359;28;20853;-79
2022/12/30 07:09:12;;;;;;;9.13;2.60;;;6.80;99.90;;;7.42;100.00;97958.38;5051659;28;20471;-78
2022/12/30 07:11:43;;;;;;;8.97;1.80;;;6.80;99.90;;;7.42;100.00;97953.97;5053572;28;20469;-79
2022/12/30 07:14:14;;;;;;;4.90;2.37;;;6.80;99.90;;;7.43;100.00;97950.38;5047558;28;20526;-78
2022/12/30 07:16:44;;;;;;;8.73;2.60;;;6.80;99.90;;;7.42;100.00;97953.97;5051220;28;20476;-78
2022/12/30 07:19:14;;;;;;;5.80;1.73;;;6.90;99.90;;;7.42;100.00;97953.97;5050646;28;20470;-78
2022/12/30 07:21:43;;;;;;;6.57;1.90;;;7.00;99.90;;;7.41;100.00;97961.94;5051286;28;20484;-79
2022/12/30 07:24:13;;;;;;;27.60;2.00;;;6.80;99.90;;;7.43;100.00;97954.75;5047655;28;20959;-78
2022/12/30 07:26:44;;;;;;;13.00;2.17;;;6.80;99.90;;;7.41;100.00;97954.13;5052950;28;20473;-78
2022/12/30 07:29:13;;;;;;;9.13;1.90;;;6.80;99.90;;;7.40;100.00;97945.53;5053090;28;21058;-79
2022/12/30 07:31:44;;;;;;;4.10;1.63;;;6.80;99.90;;;7.39;100.00;97958.72;5048380;28;20549;-79
2022/12/30 07:34:13;;;;;;;13.13;2.30;;;6.70;99.90;;;7.40;100.00;97958.53;5051965;28;20501;-78
2022/12/30 07:36:43;;;;;;;11.37;2.73;;;6.80;99.90;;;7.41;100.00;97961.94;5049660;28;20480;-78
2022/12/30 07:39:14;;;;;;;8.80;1.60;;;6.80;99.90;;;7.39;100.00;97954.28;5047399;28;20474;-78
2022/12/30 07:41:44;;;;;;;18.50;2.03;;;6.70;99.90;;;7.43;100.00;97949.56;5047525;28;20457;-79
2022/12/30 07:44:14;;;;;;;6.93;2.10;;;6.90;99.90;;;7.40;100.00;97950.72;5049154;28;20479;-79
2022/12/30 07:46:44;;;;;;;6.30;2.13;;;6.90;99.90;;;7.41;100.00;97944.53;5049811;28;20997;-78
2022/12/30 07:49:14;;;;;;;8.03;2.20;;;6.90;99.90;;;7.42;100.00;97947.97;5051552;28;20583;-78
2022/12/30 07:51:45;;;;;;;9.63;1.93;;;6.90;99.90;;;7.43;100.00;97941.75;5049470;28;21147;-79
2022/12/30 07:54:15;;;;;;;8.20;1.97;;;6.90;99.90;;;7.43;100.00;97928.75;5051943;28;20536;-79
2022/12/30 07:56:46;;;;;;;7.90;2.10;;;7.00;99.90;;;7.39;100.00;97923.06;5050806;28;20493;-78
2022/12/30 07:59:16;;;;;;;16.37;2.47;;;6.90;99.90;;;7.40;100.00;97926.50;5052741;28;20453;-79
2022/12/30 08:01:46;;;;;;;6.67;1.97;;;6.80;99.90;;;7.43;100.00;97923.56;5052372;28;20557;-78
2022/12/30 08:04:16;;;;;;;1.93;1.60;;;6.90;99.90;;;7.44;100.00;97910.38;5049490;28;20453;-78
2022/12/30 08:07:04;;;;;;;3.07;1.60;;;7.00;99.90;;;7.46;100.00;97902.44;5051300;28;20837;-79
2022/12/30 08:09:37;;;;;;;6.47;2.33;;;7.00;99.90;;;7.47;100.00;97904.84;5051311;28;20469;-78
2022/12/30 08:12:09;;;;;;;6.20;2.40;;;7.00;99.90;;;7.48;100.00;97905.66;5048850;28;20464;-79
2022/12/30 08:14:39;;;;;;;7.23;2.13;;;7.00;99.90;;;7.50;100.00;97896.69;5047443;28;20532;-78
2022/12/30 08:17:09;;;;;;;2.93;1.67;;;7.00;99.90;;;7.49;100.00;97887.28;5050231;28;20934;-78
2022/12/30 08:19:39;;;;;;;6.30;2.03;;;7.10;99.90;;;7.51;100.00;97874.91;5049189;28;20975;-79
2022/12/30 08:22:09;;;;;;;11.57;2.60;;;7.10;99.90;;;7.51;100.00;97868.88;5054333;28;20484;-78
2022/12/30 08:24:39;;;;;;;8.67;2.40;;;7.10;99.90;;;7.49;100.00;97856.06;5054006;28;20487;-79
2022/12/30 08:27:10;;;;;;;8.90;1.90;;;7.10;99.90;;;7.50;100.00;97849.84;5052505;28;20540;-78
2022/12/30 08:29:41;;;;;;;1.47;1.37;;;7.00;99.90;;;7.51;100.00;97843.69;5051705;28;20908;-79
2022/12/30 08:32:11;;;;;;;3.27;1.87;;;7.00;99.90;;;7.54;100.00;97843.34;5051954;28;20974;-79
2022/12/30 08:34:40;;;;;;;9.27;2.33;;;7.10;99.90;;;7.56;100.00;97846.59;5053240;28;21155;-79
2022/12/30 08:37:09;;;;;;;3.80;1.70;;;7.10;99.90;;;7.59;100.00;97842.81;5049890;28;20550;-78
2022/12/30 08:39:38;;;;;;;5.30;1.63;;;7.20;99.90;;;7.57;100.00;97832.59;5052459;28;20472;-78
2022/12/30 08:42:09;;;;;;;5.40;1.53;;;7.20;99.90;;;7.60;100.00;97842.63;5049218;28;20504;-79
2022/12/30 08:44:40;;;;;;;6.13;1.67;;;7.20;99.90;;;7.63;100.00;97830.28;5053905;28;20458;-78
2022/12/30 08:47:09;;;;;;;5.73;1.87;;;7.20;99.90;;;7.65;100.00;97831.72;5055075;28;21068;-78
2022/12/30 08:49:39;;;;;;;14.40;1.87;;;7.20;99.90;;;7.68;100.00;97825.34;5053984;28;20464;-78
2022/12/30 08:52:11;;;;;;;10.13;1.80;;;7.20;99.90;;;7.70;100.00;97826.00;5054016;28;20468;-78
2022/12/30 08:54:39;;;;;;;12.50;2.63;;;7.20;99.90;;;7.71;100.00;97820.59;5055192;28;20574;-79
2022/12/30 08:57:11;;;;;;;4.20;1.43;;;7.20;99.90;;;7.71;100.00;97815.41;5054404;28;20470;-79
2022/12/30 08:59:41;;;;;;;4.97;1.47;;;7.20;99.90;;;7.74;100.00;97814.25;5056043;28;20461;-78
2022/12/30 09:02:12;;;;;;;6.20;2.23;;;7.20;99.90;;;7.75;100.00;97814.06;5052389;28;20525;-79
2022/12/30 09:04:43;;;;;;;5.10;1.87;;;7.20;99.90;;;7.77;100.00;97822.53;5057170;28;20469;-78
2022/12/30 09:07:12;;;;;;;9.13;1.70;;;7.30;99.90;;;7.77;100.00;97826.94;5051478;28;20472;-79
2022/12/30 09:10:02;;;;;;;4.90;1.77;;;7.20;99.90;;;7.81;100.00;97825.59;5053106;28;20463;-78
2022/12/30 09:12:33;;;;;;;5.43;2.20;;;7.40;99.90;;;7.80;100.00;97813.56;5054970;28;20946;-79
2022/12/30 09:15:02;;;;;;;4.93;1.50;;;7.40;99.90;;;7.81;100.00;97807.38;5054699;28;20495;-78
2022/12/30 09:17:33;;;;;;;5.70;2.00;;;7.30;99.90;;;7.83;100.00;97805.41;5053509;28;20503;-79
2022/12/30 09:20:02;;;;;;;5.93;2.10;;;7.30;99.90;;;7.84;100.00;97792.22;5051636;28;20465;-79
2022/12/30 09:22:31;;;;;;;4.90;2.77;;;7.40;99.90;;;7.86;100.00;97789.41;5051297;28;21013;-78
2022/12/30 09:25:01;;;;;;;6.33;1.70;;;7.40;99.90;;;7.88;100.00;97788.25;5051843;28;20900;-79
2022/12/30 09:27:31;;;;;;;2.00;1.63;;;7.40;99.90;;;7.90;100.00;97785.50;5052460;28;20499;-79
2022/12/30 09:30:03;;;;;;;3.83;1.60;;;7.40;99.90;;;7.92;100.00;97786.09;5050475;28;20526;-79
2022/12/30 09:32:34;;;;;;;6.33;1.97;;;7.50;99.90;;;7.91;100.00;97777.47;5052158;28;20550;-79
2022/12/30 09:35:04;;;;;;;4.90;1.93;;;7.40;99.90;;;7.93;100.00;97777.31;5052350;28;20473;-78
2022/12/30 09:37:33;;;;;;;4.27;1.70;;;7.50;99.90;;;7.94;100.00;97765.94;5054000;28;20461;-79
2022/12/30 09:40:03;;;;;;;5.00;1.67;;;7.50;99.90;;;7.96;100.00;97769.97;5052543;28;20461;-79
2022/12/30 09:45:40;;;;;;;5.87;1.80;;;7.60;99.90;;;7.98;100.00;97770.59;5051660;28;21058;-79
2022/12/30 09:48:18;;;;;;;8.10;1.70;;;7.60;99.90;;;8.00;100.00;97778.22;5056520;28;20476;-78
2022/12/30 09:50:54;;;;;;;4.20;1.50;;;7.60;99.90;;;8.01;100.00;97772.84;5052830;28;20458;-79
2022/12/30 09:53:42;;;;;;;8.83;2.37;;;7.60;99.90;;;8.06;100.00;97767.09;5053190;28;20496;-79
2022/12/30 09:56:18;;;;;;;5.63;1.77;;;7.60;99.90;;;8.06;100.00;97751.47;5052576;28;21015;-79
2022/12/30 09:58:48;;;;;;;8.57;1.70;;;7.60;99.90;;;8.10;100.00;97750.13;5052937;28;20448;-79
2022/12/30 10:01:32;;;;;;;4.30;1.40;;;7.60;99.90;;;8.14;100.00;97751.41;5048360;28;20464;-78
2022/12/30 10:04:02;;;;;;;5.63;1.80;;;7.70;99.90;;;8.16;100.00;97741.59;5054072;28;20886;-78
2022/12/30 10:06:40;;;;;;;5.10;1.40;;;7.80;99.90;;;8.17;100.00;97737.22;5053471;28;20968;-79
2022/12/30 10:09:42;;;;;;;5.90;1.70;;;7.80;99.90;;;8.20;100.00;97739.44;5051257;28;20498;-79
2022/12/30 10:12:40;;;;;;;3.00;1.87;;;7.80;99.90;;;8.24;100.00;97736.31;5053102;28;20461;-79
2022/12/30 10:15:28;;;;;;;8.27;3.50;;;7.80;99.90;;;8.24;100.00;97728.50;5050173;28;21114;-79
2022/12/30 10:18:24;;;;;;;5.43;2.10;;;7.90;99.90;;;8.25;100.00;97721.50;5053958;28;20476;-78
2022/12/30 10:21:14;;;;;;;12.27;1.83;;;7.80;99.90;;;8.26;100.00;97721.31;5050193;28;20474;-79
2022/12/30 10:24:08;;;;;;;8.73;1.70;;;7.90;99.90;;;8.25;100.00;97716.28;5047468;28;20554;-78
2022/12/30 10:26:52;;;;;;;8.20;1.40;;;7.90;99.90;;;8.28;100.00;97710.72;5051956;28;20547;-79
2022/12/30 10:29:31;;;;;;;3.23;1.60;;;7.90;99.90;;;8.29;100.00;97713.19;5053233;28;20458;-79
2022/12/30 10:32:14;;;;;;;4.40;1.77;;;7.90;99.90;;;8.33;100.00;97721.44;5048489;28;21280;-79
2022/12/30 10:34:47;;;;;;;2.07;1.20;;;7.90;99.90;;;8.34;100.00;97729.06;5050172;28;20497;-78
2022/12/30 10:37:27;;;;;;;6.10;1.53;;;7.90;99.90;;;8.36;100.00;97729.72;5049975;28;20456;-79
2022/12/30 10:39:57;;;;;;;5.87;2.00;;;8.00;99.90;;;8.36;100.00;97719.28;5053220;28;20458;-78
2022/12/30 10:43:06;;;;;;;4.33;1.47;;;7.90;99.90;;;8.36;100.00;97711.47;5051108;28;20452;-78
2022/12/30 10:46:13;;;;;;;8.53;1.67;;;7.90;99.90;;;8.39;100.00;97698.09;5049471;28;20515;-79
2022/12/30 10:49:16;;;;;;;3.73;1.50;;;7.90;99.90;;;8.44;100.00;97698.34;5053946;28;20539;-78
2022/12/30 10:51:49;;;;;;;2.30;1.27;;;8.10;99.90;;;8.45;100.00;97691.31;5049777;28;20464;-79
2022/12/30 10:54:18;;;;;;;7.93;2.00;;;8.10;99.90;;;8.43;100.00;97690.72;5050552;28;20493;-79
2022/12/30 10:56:49;;;;;;;5.67;1.30;;;8.00;99.90;;;8.42;100.00;97684.69;5052130;28;20535;-79
2022/12/30 10:59:23;;;;;;;6.67;1.80;;;8.00;99.90;;;8.44;100.00;97674.88;5053684;28;20475;-78
2022/12/30 11:02:01;;;;;;;2.93;1.63;;;8.10;99.90;;;8.46;100.00;97661.69;5048679;28;20460;-79
2022/12/30 11:04:37;;;;;;;4.30;1.70;;;8.00;99.90;;;8.47;100.00;97665.88;5053516;28;20488;-78
2022/12/30 11:07:12;;;;;;;5.20;1.47;;;8.10;99.90;;;8.45;100.00;97647.03;5054433;28;20506;-78
2022/12/30 11:09:44;;;;;;;5.50;2.47;;;8.00;99.90;;;8.47;100.00;97629.41;5053175;28;20468;-79
2022/12/30 11:15:21;;;;;;;2.50;1.50;;;8.00;99.90;;;8.51;100.00;97623.66;5048462;28;20497;-78
2022/12/30 11:17:55;;;;;;;9.53;1.90;;;8.00;99.90;;;8.53;100.00;97616.47;5049754;28;20472;-79
2022/12/30 11:20:34;;;;;;;3.63;1.57;;;8.10;99.90;;;8.53;100.00;97608.66;5048855;28;20599;-78
2022/12/30 11:23:21;;;;;;;12.43;1.67;;;8.10;99.90;;;8.54;100.00;97607.66;5048875;28;20944;-79
2022/12/30 11:25:52;;;;;;;3.27;1.57;;;8.10;99.90;;;8.54;100.00;97612.84;5046232;28;20468;-79
2022/12/30 11:28:26;;;;;;;3.27;1.73;;;8.10;99.90;;;8.56;100.00;97608.28;5050575;28;20504;-79
2022/12/30 11:31:06;;;;;;;6.33;1.80;;;8.10;99.90;;;8.56;100.00;97592.66;5049500;28;20502;-78
2022/12/30 11:33:45;;;;;;;5.17;1.80;;;8.10;99.90;;;8.57;100.00;97588.25;5051918;28;20464;-78
2022/12/30 11:36:21;;;;;;;6.00;1.80;;;8.10;99.90;;;8.58;100.00;97579.41;5051285;28;20562;-79
2022/12/30 11:38:54;;;;;;;3.37;1.37;;;8.20;99.90;;;8.61;100.00;97589.47;5049425;28;20736;-79
2022/12/30 11:41:29;;;;;;;4.90;1.40;;;8.20;99.90;;;8.59;100.00;97584.47;5050302;28;20539;-79
2022/12/30 11:44:15;;;;;;;12.07;1.90;;;8.20;99.90;;;8.59;100.00;97579.25;5053955;28;20662;-78
2022/12/30 11:46:50;;;;;;;5.73;1.73;;;8.10;99.90;;;8.61;100.00;97580.88;5051037;28;20475;-78
2022/12/30 11:49:48;;;;;;;2.73;1.40;;;8.10;99.90;;;8.62;100.00;97566.81;5050419;28;20502;-78
2022/12/30 11:52:25;;;;;;;7.33;1.40;;;8.20;99.90;;;8.64;100.00;97557.03;5049325;28;20949;-79